Terminal Aerodrome Forecast
Issued by NWS Grand Forks, ND

Home | Current Version | Previous Version | Text Only | Print | Product List | Glossary On
Versions: 1 2 3 4 5 6 7 8 9 10 11 12 13 14 15 16 17 18
000
FTUS43 KFGF 291100
TAFFAR
TAF
KFAR 291130Z 2912/3012 34029G37KT P6SM -SHRA FEW008 OVC015
     FM291400 33026G36KT P6SM BKN025
     FM291600 33028G36KT P6SM SCT035
     FM292100 33018G25KT P6SM SCT250
     FM300000 32009KT P6SM SCT250
     FM300500 VRB06KT P6SM BKN250=

USA.gov is the U.S. government's official web portal to all federal, state and local government web resources and services.